Hauptseite
METAR-TAF:

METAR-TAF

Flughäfen :

Straßburg, Frankreich

Flughafen Straßburg

Breite: 48-33N, Länge: 007-38E, Höhe: 153 m

Beobachtung

Neuester Wetterbericht von vor 13 Minuten, um 03:30 UTC
Wind 1 kt aus unterschiedlichen Richtungen
Temperatur 11°C
Luftfeuchtigkeit 82%
Luftdruck 1020 hPa
Sichtweite 10 km oder mehr
keine Wolken unter 1500 m und keine Kumulonimbus oder Gewitterwolken

METAR: LFST 210330Z AUTO VRB01KT CAVOK 11/08 Q1020 NOSIG

Zeit: 05:43 (03:43 UTC)

Prognose

Neuester Wetterbericht von vor 4 Stunden und 43 Minuten, um 23:00 UTC
Gültige Prognose vom 21 um 00 UTC bis 21 um 24 UTC
Wind 4 kt aus Nord
Sichtweite 10 km oder mehr
keine Wolken unter 1500 m und keine Kumulonimbus oder Gewitterwolken

TAF: LFST 202300Z 2100/2124 01004KT CAVOK

Wetterbeobachtungen und Prognosen von mehr als 4000 Flughäfen (METAR und TAF Bericht).

Die verfügbaren Stationen werden durch gelbe und rote Markierungen auf der Karte dargestellt.

Führen Sie die Maus auf sie, um den Namen der Station zu sehen.

Darauf klicken, um die Beobachtung von Wetterbeobachtungen und Prognosen zu sehen.

Um die Karte zu ändern : klicken Sie auf den grünen Tasten mit einem schwarzen Kreuz Zum Vergrößern, auf den grünen Button mit einem Gedankenstrich zu verkleinern, oder auf die grünen Pfeile für benachbarte Karten.


METAR-TAF: